createdAt,value
2023-01-05T00:00:55.678Z,49.71
2023-01-05T00:03:23.404Z,49.42
2023-01-05T00:05:50.979Z,49.18
2023-01-05T00:08:18.550Z,49.29
2023-01-05T00:11:05.113Z,49.51
2023-01-05T00:13:50.006Z,50.70
2023-01-05T00:16:35.668Z,49.38
2023-01-05T00:19:20.827Z,51.24
2023-01-05T00:22:05.726Z,49.89
2023-01-05T00:24:33.284Z,48.44
2023-01-05T00:27:02.210Z,49.06
2023-01-05T00:29:29.842Z,49.30
2023-01-05T00:31:57.452Z,50.02
2023-01-05T00:34:25.076Z,50.78
2023-01-05T00:36:52.699Z,49.45
2023-01-05T00:39:20.252Z,51.14
2023-01-05T00:41:47.811Z,51.68
2023-01-05T00:44:17.699Z,50.86
2023-01-05T00:46:45.396Z,50.64
2023-01-05T00:49:12.993Z,50.12
2023-01-05T00:51:40.676Z,49.79
2023-01-05T00:54:08.628Z,49.75
2023-01-05T00:56:36.208Z,49.80
2023-01-05T00:59:03.728Z,50.04
2023-01-05T01:01:32.907Z,50.98
2023-01-05T01:04:00.671Z,50.16
2023-01-05T01:06:28.991Z,50.23
2023-01-05T01:08:56.559Z,49.54
2023-01-05T01:11:24.103Z,50.28
2023-01-05T01:13:51.635Z,49.95
2023-01-05T01:16:19.263Z,50.99
2023-01-05T01:18:48.245Z,49.91
2023-01-05T01:21:15.982Z,49.80
2023-01-05T01:23:43.810Z,50.28
2023-01-05T01:26:12.181Z,51.07
2023-01-05T01:28:39.765Z,51.21
2023-01-05T01:31:07.583Z,50.79
2023-01-05T01:33:35.274Z,49.95
2023-01-05T01:36:05.891Z,50.35
2023-01-05T01:38:33.583Z,49.38
2023-01-05T01:41:01.431Z,50.05
2023-01-05T01:43:42.435Z,49.56
2023-01-05T01:46:10.076Z,50.10
2023-01-05T01:48:37.950Z,50.01
2023-01-05T01:51:08.418Z,50.13
2023-01-05T01:53:36.938Z,52.09
2023-01-05T01:56:05.079Z,50.65
2023-01-05T01:58:32.883Z,49.53
2023-01-05T02:01:01.404Z,49.50
2023-01-05T02:03:29.191Z,50.04
2023-01-05T02:05:56.838Z,49.34
2023-01-05T02:08:31.192Z,49.78
2023-01-05T02:11:02.086Z,50.95
2023-01-05T02:13:33.063Z,50.81
2023-01-05T02:16:04.067Z,49.82
2023-01-05T02:18:36.720Z,49.65
2023-01-05T02:21:10.363Z,50.02
2023-01-05T02:23:59.948Z,50.55
2023-01-05T02:26:51.533Z,50.22
2023-01-05T02:29:32.205Z,50.74
2023-01-05T02:32:03.106Z,51.85
2023-01-05T02:34:31.559Z,51.98
2023-01-05T02:37:00.579Z,51.00
2023-01-05T02:39:29.700Z,52.12
2023-01-05T02:41:58.782Z,51.94
2023-01-05T02:44:28.804Z,51.60
2023-01-05T02:47:00.278Z,52.47
2023-01-05T02:49:29.315Z,51.87
2023-01-05T02:51:57.054Z,50.55
2023-01-05T02:54:25.432Z,53.39
2023-01-05T02:56:54.182Z,51.41
2023-01-05T02:59:23.235Z,53.90
2023-01-05T03:01:52.025Z,54.98
2023-01-05T03:04:20.475Z,51.53
2023-01-05T03:06:53.077Z,52.67
2023-01-05T03:09:20.745Z,51.12
2023-01-05T03:12:08.202Z,52.41
2023-01-05T03:14:36.844Z,52.56
2023-01-05T03:17:04.723Z,51.24
2023-01-05T03:19:40.343Z,53.57
2023-01-05T03:22:32.067Z,54.38
2023-01-05T03:25:17.364Z,54.67
2023-01-05T03:28:02.398Z,52.36
2023-01-05T03:30:49.905Z,51.97
2023-01-05T03:33:37.214Z,51.33
2023-01-05T03:36:06.814Z,49.78
2023-01-05T03:38:36.640Z,49.79
2023-01-05T03:41:05.177Z,49.15
2023-01-05T03:43:34.496Z,50.76
2023-01-05T03:46:04.262Z,50.92
2023-01-05T03:48:31.878Z,51.99
2023-01-05T03:50:59.457Z,53.22
2023-01-05T03:53:27.682Z,54.75
2023-01-05T03:55:56.636Z,55.22
2023-01-05T03:58:25.766Z,54.36
2023-01-05T04:00:53.518Z,54.54
2023-01-05T04:03:29.422Z,54.25
2023-01-05T04:05:59.477Z,54.78
2023-01-05T04:08:29.616Z,53.74
2023-01-05T04:11:00.874Z,54.29
2023-01-05T04:13:28.674Z,55.98
2023-01-05T04:15:56.603Z,56.14
2023-01-05T04:18:24.404Z,55.71
2023-01-05T04:20:52.947Z,56.34
2023-01-05T04:23:20.721Z,55.65
2023-01-05T04:25:48.481Z,55.68
2023-01-05T04:28:22.685Z,55.65
2023-01-05T04:30:50.644Z,56.07
2023-01-05T04:33:18.670Z,55.95
2023-01-05T04:35:46.385Z,57.06
2023-01-05T04:38:14.500Z,56.88
2023-01-05T04:40:42.305Z,57.37
2023-01-05T04:43:11.225Z,55.64
2023-01-05T04:45:40.213Z,57.48
2023-01-05T04:48:08.865Z,60.93
2023-01-05T04:50:39.144Z,61.23
2023-01-05T04:53:08.190Z,61.01
2023-01-05T04:55:38.793Z,60.63
2023-01-05T04:58:11.742Z,61.59
2023-01-05T05:00:42.182Z,62.64
2023-01-05T05:03:10.014Z,61.60
2023-01-05T05:05:38.221Z,62.88
2023-01-05T05:08:06.279Z,63.24
2023-01-05T05:10:35.217Z,62.01
2023-01-05T05:13:02.867Z,63.09
2023-01-05T05:15:31.560Z,62.20
2023-01-05T05:18:07.050Z,59.13
2023-01-05T05:20:36.821Z,61.29
2023-01-05T05:23:04.472Z,60.75
2023-01-05T05:25:34.193Z,59.33
2023-01-05T05:28:01.789Z,59.79
2023-01-05T05:30:29.383Z,62.26
2023-01-05T05:32:56.982Z,62.66
2023-01-05T05:35:25.940Z,61.12
2023-01-05T05:37:56.553Z,60.52
2023-01-05T05:40:24.333Z,60.51
2023-01-05T05:42:51.937Z,60.63
2023-01-05T05:45:19.474Z,61.61
2023-01-05T05:47:47.113Z,62.96
2023-01-05T05:50:14.680Z,63.12
2023-01-05T05:52:43.576Z,63.25
2023-01-05T05:55:11.173Z,64.36
2023-01-05T05:57:38.730Z,64.65
2023-01-05T06:00:06.859Z,64.46
2023-01-05T06:02:40.480Z,62.23
2023-01-05T06:05:08.490Z,63.39
2023-01-05T06:07:36.061Z,64.96
2023-01-05T06:10:05.177Z,64.87
2023-01-05T06:12:33.012Z,64.81
2023-01-05T06:15:01.244Z,64.29
2023-01-05T06:17:28.915Z,64.51
2023-01-05T06:19:56.457Z,63.11
2023-01-05T06:22:23.999Z,64.52
2023-01-05T06:24:51.526Z,64.86
2023-01-05T06:27:20.386Z,64.01
2023-01-05T06:29:48.043Z,64.38
2023-01-05T06:32:15.621Z,66.16
2023-01-05T06:34:44.991Z,64.01
2023-01-05T06:37:12.624Z,65.93
2023-01-05T06:42:37.228Z,65.66
2023-01-05T06:45:04.992Z,62.48
2023-01-05T06:47:32.767Z,63.80
2023-01-05T06:50:00.363Z,65.13
2023-01-05T06:52:27.927Z,66.61
2023-01-05T06:54:55.837Z,62.69
2023-01-05T06:57:24.289Z,61.46
2023-01-05T06:59:53.199Z,59.91
2023-01-05T07:02:20.983Z,63.26
2023-01-05T07:04:48.563Z,64.88
2023-01-05T07:07:16.453Z,64.22
2023-01-05T07:09:45.013Z,64.20
2023-01-05T07:12:14.573Z,63.44
2023-01-05T07:14:42.605Z,65.71
2023-01-05T07:17:12.595Z,61.52
2023-01-05T07:19:40.739Z,60.39
2023-01-05T07:22:08.406Z,61.23
2023-01-05T07:24:37.088Z,63.74
2023-01-05T07:27:09.568Z,62.58
2023-01-05T07:29:37.799Z,61.02
2023-01-05T07:32:05.854Z,63.57
2023-01-05T07:34:34.870Z,61.28
2023-01-05T07:37:02.460Z,60.20
2023-01-05T07:39:30.234Z,60.83
2023-01-05T07:41:57.831Z,60.24
2023-01-05T07:44:27.136Z,60.84
2023-01-05T07:46:54.923Z,58.94
2023-01-05T07:49:22.438Z,60.20
2023-01-05T07:51:51.305Z,60.17
2023-01-05T07:54:18.844Z,58.02
2023-01-05T07:56:46.346Z,59.57
2023-01-05T07:59:13.906Z,61.01
2023-01-05T08:01:41.536Z,56.12
2023-01-05T08:04:09.963Z,57.59
2023-01-05T08:06:37.571Z,56.68
2023-01-05T08:09:20.687Z,57.14
2023-01-05T08:11:48.320Z,58.63
2023-01-05T08:14:15.846Z,57.30
2023-01-05T08:16:43.842Z,55.76
2023-01-05T08:19:11.979Z,57.87
2023-01-05T08:21:39.629Z,56.79
2023-01-05T08:24:08.893Z,55.83
2023-01-05T08:26:36.547Z,55.37
2023-01-05T08:29:04.172Z,56.11
2023-01-05T08:31:37.049Z,57.41
2023-01-05T08:34:04.862Z,59.28
2023-01-05T08:36:32.938Z,59.60
2023-01-05T08:39:01.661Z,60.79
2023-01-05T08:41:31.827Z,62.65
2023-01-05T08:44:00.000Z,61.69
2023-01-05T08:46:28.367Z,59.64
2023-01-05T08:48:56.584Z,59.00
2023-01-05T08:51:24.223Z,57.68
2023-01-05T08:53:51.855Z,57.13
2023-01-05T08:56:19.621Z,59.19
2023-01-05T08:58:48.664Z,60.53
2023-01-05T09:01:17.078Z,61.03
2023-01-05T09:03:44.835Z,61.46
2023-01-05T09:06:12.836Z,62.45
2023-01-05T09:08:41.540Z,61.60
2023-01-05T09:11:09.518Z,59.40
2023-01-05T09:13:37.101Z,58.05
2023-01-05T09:16:07.177Z,57.32
2023-01-05T09:18:35.189Z,58.85
2023-01-05T09:21:02.768Z,60.29
2023-01-05T09:23:30.323Z,58.52
2023-01-05T09:25:57.930Z,57.94
2023-01-05T09:28:25.546Z,58.26
2023-01-05T09:30:53.173Z,56.24
2023-01-05T09:33:22.178Z,56.77
2023-01-05T09:35:54.225Z,56.94
2023-01-05T09:38:22.641Z,57.32
2023-01-05T09:40:50.215Z,56.58
2023-01-05T09:43:22.181Z,56.41
2023-01-05T09:45:49.844Z,53.56
2023-01-05T09:48:17.460Z,55.69
2023-01-05T09:50:46.401Z,57.49
2023-01-05T09:53:14.220Z,58.36
2023-01-05T09:55:41.792Z,58.91
2023-01-05T09:58:11.784Z,56.84
2023-01-05T10:00:39.425Z,55.19
2023-01-05T10:03:07.522Z,55.38
2023-01-05T10:05:35.264Z,57.14
2023-01-05T10:08:05.226Z,56.48
2023-01-05T10:10:37.903Z,58.17
2023-01-05T10:13:05.555Z,59.56
2023-01-05T10:15:38.300Z,58.81
2023-01-05T10:18:13.200Z,58.92
2023-01-05T10:20:46.802Z,56.78
2023-01-05T10:23:18.158Z,59.05
2023-01-05T10:25:47.766Z,58.24
2023-01-05T10:28:22.832Z,58.94
2023-01-05T10:30:51.917Z,58.22
2023-01-05T10:33:28.172Z,55.94
2023-01-05T10:36:10.431Z,57.10
2023-01-05T10:38:44.583Z,55.71
2023-01-05T10:41:14.275Z,55.08
2023-01-05T10:43:43.382Z,55.39
2023-01-05T10:48:58.503Z,55.30
2023-01-05T10:51:26.263Z,54.83
2023-01-05T10:53:55.169Z,54.22
2023-01-05T10:56:24.821Z,54.06
2023-01-05T10:59:07.054Z,55.09
2023-01-05T11:01:34.916Z,56.04
2023-01-05T11:04:28.866Z,56.79
2023-01-05T11:06:51.240Z,53.92
2023-01-05T11:09:22.567Z,54.53
2023-01-05T11:11:54.212Z,56.21
2023-01-05T11:14:21.851Z,55.65
2023-01-05T11:16:50.174Z,55.42
2023-01-05T11:19:18.165Z,54.59
2023-01-05T11:21:45.987Z,54.86
2023-01-05T11:24:31.245Z,56.26
2023-01-05T11:26:59.646Z,53.76
2023-01-05T11:29:27.216Z,53.18
2023-01-05T11:31:55.412Z,53.85
2023-01-05T11:34:39.119Z,55.22
2023-01-05T11:37:08.651Z,55.64
2023-01-05T11:39:39.938Z,55.76
2023-01-05T11:45:20.534Z,53.50
2023-01-05T11:47:48.503Z,54.84
2023-01-05T11:50:18.150Z,54.08
2023-01-05T11:52:46.172Z,51.77
2023-01-05T11:55:31.804Z,51.19
2023-01-05T11:58:09.786Z,51.42
2023-01-05T12:00:40.163Z,50.24
2023-01-05T12:03:12.349Z,49.22
2023-01-05T12:05:42.061Z,50.52
2023-01-05T12:08:11.713Z,52.27
2023-01-05T12:10:44.634Z,50.62
2023-01-05T12:13:17.085Z,50.10
2023-01-05T12:15:56.123Z,49.20
2023-01-05T12:18:30.890Z,49.05
2023-01-05T12:20:58.623Z,49.78
2023-01-05T12:23:33.686Z,50.23
2023-01-05T12:26:04.337Z,49.72
2023-01-05T12:28:41.467Z,50.00
2023-01-05T12:34:17.654Z,47.10
2023-01-05T12:36:53.008Z,49.94
2023-01-05T12:39:31.841Z,49.25
2023-01-05T12:42:02.940Z,48.72
2023-01-05T12:44:34.813Z,51.79
2023-01-05T12:47:05.891Z,51.61
2023-01-05T12:49:34.144Z,49.97
2023-01-05T12:52:06.782Z,50.11
2023-01-05T12:54:38.965Z,49.66
2023-01-05T12:57:08.706Z,50.44
2023-01-05T12:59:37.789Z,51.33
2023-01-05T13:02:09.260Z,49.36
2023-01-05T13:04:46.255Z,49.82
2023-01-05T13:07:16.695Z,47.34
2023-01-05T13:09:44.224Z,46.60
2023-01-05T13:12:13.630Z,46.20
2023-01-05T13:14:42.240Z,45.50
2023-01-05T13:17:12.245Z,45.27
2023-01-05T13:19:46.116Z,46.51
2023-01-05T13:22:16.834Z,45.11
2023-01-05T13:24:46.825Z,45.00
2023-01-05T13:27:15.738Z,45.46
2023-01-05T13:29:45.064Z,44.76
2023-01-05T13:32:19.342Z,45.31
2023-01-05T13:34:49.931Z,46.34
2023-01-05T13:37:23.949Z,45.03
2023-01-05T13:39:55.819Z,45.80
2023-01-05T13:42:37.765Z,46.64
2023-01-05T13:45:08.862Z,45.42
2023-01-05T13:48:07.237Z,45.56
2023-01-05T13:50:41.129Z,44.08
2023-01-05T13:53:11.118Z,43.15
2023-01-05T13:55:39.419Z,42.99
2023-01-05T13:58:08.339Z,44.22
2023-01-05T14:00:36.583Z,43.00
2023-01-05T14:03:07.819Z,43.93
2023-01-05T14:05:37.418Z,44.45
2023-01-05T14:08:05.454Z,43.90
2023-01-05T14:10:33.619Z,43.28
2023-01-05T14:13:01.761Z,43.00
2023-01-05T14:15:33.273Z,42.63
2023-01-05T14:18:02.281Z,42.22
2023-01-05T14:20:34.787Z,44.64
2023-01-05T14:23:02.928Z,43.47
2023-01-05T14:25:50.438Z,43.83
2023-01-05T14:28:22.641Z,44.78
2023-01-05T14:30:52.127Z,43.62
2023-01-05T14:33:20.319Z,44.98
2023-01-05T14:35:47.893Z,45.56
2023-01-05T14:38:17.484Z,44.49
2023-01-05T14:40:45.618Z,43.79
2023-01-05T14:43:27.335Z,44.10
2023-01-05T14:45:59.093Z,44.03
2023-01-05T14:48:29.299Z,43.81
2023-01-05T14:51:07.921Z,44.22
2023-01-05T14:53:43.036Z,44.25
2023-01-05T14:56:18.109Z,43.49
2023-01-05T14:58:55.647Z,43.80
2023-01-05T15:01:27.275Z,44.18
2023-01-05T15:03:57.410Z,46.04
2023-01-05T15:06:26.392Z,45.09
2023-01-05T15:09:14.948Z,46.49
2023-01-05T15:11:45.950Z,47.05
2023-01-05T15:14:34.808Z,47.60
2023-01-05T15:17:14.968Z,47.93
2023-01-05T15:19:49.651Z,47.61
2023-01-05T15:22:37.784Z,47.39
2023-01-05T15:25:09.058Z,47.82
2023-01-05T15:27:46.384Z,45.19
2023-01-05T15:30:21.780Z,44.57
2023-01-05T15:32:52.982Z,45.33
2023-01-05T15:35:21.584Z,44.16
2023-01-05T15:37:52.059Z,44.06
2023-01-05T15:40:30.786Z,44.22
2023-01-05T15:42:59.181Z,43.82
2023-01-05T15:45:27.939Z,45.78
2023-01-05T15:47:56.916Z,44.92
2023-01-05T15:50:25.586Z,44.28
2023-01-05T15:52:54.300Z,43.82
2023-01-05T15:55:21.886Z,42.86
2023-01-05T15:57:53.070Z,45.47
2023-01-05T16:00:21.542Z,46.29
2023-01-05T16:02:49.163Z,47.22
2023-01-05T16:05:18.658Z,46.04
2023-01-05T16:07:46.818Z,45.64
2023-01-05T16:10:18.189Z,45.84
2023-01-05T16:12:45.950Z,44.78
2023-01-05T16:15:14.508Z,45.06
2023-01-05T16:17:42.184Z,45.79
2023-01-05T16:20:12.694Z,45.07
2023-01-05T16:22:42.224Z,44.55
2023-01-05T16:25:12.259Z,44.23
2023-01-05T16:27:40.959Z,44.17
2023-01-05T16:30:16.650Z,44.80
2023-01-05T16:32:44.686Z,43.69
2023-01-05T16:35:25.434Z,44.56
2023-01-05T16:38:20.182Z,45.51
2023-01-05T16:41:06.579Z,44.75
2023-01-05T16:43:36.349Z,43.20
2023-01-05T16:46:26.667Z,43.25
2023-01-05T16:48:55.008Z,43.34
2023-01-05T16:51:22.834Z,44.80
2023-01-05T16:53:51.217Z,45.50
2023-01-05T16:56:19.679Z,45.78
2023-01-05T16:58:48.824Z,46.04
2023-01-05T17:01:24.228Z,46.28
2023-01-05T17:03:52.046Z,45.54
2023-01-05T17:06:24.108Z,45.81
2023-01-05T17:08:51.719Z,46.73
2023-01-05T17:11:19.274Z,45.30
2023-01-05T17:13:49.236Z,45.71
2023-01-05T17:16:17.020Z,46.71
2023-01-05T17:18:44.621Z,46.55
2023-01-05T17:21:14.533Z,45.45
2023-01-05T17:23:46.893Z,45.99
2023-01-05T17:26:16.017Z,45.26
2023-01-05T17:28:43.590Z,46.14
2023-01-05T17:33:45.033Z,46.55
2023-01-05T17:36:12.568Z,48.24
2023-01-05T17:38:40.156Z,47.03
2023-01-05T17:41:07.723Z,45.85
2023-01-05T17:43:35.312Z,48.69
2023-01-05T17:46:02.918Z,46.77
2023-01-05T17:48:31.913Z,45.12
2023-01-05T17:51:00.350Z,47.03
2023-01-05T17:53:27.886Z,48.24
2023-01-05T17:55:55.494Z,46.66
2023-01-05T17:58:25.288Z,47.16
2023-01-05T18:00:54.366Z,47.18
2023-01-05T18:03:22.922Z,47.76
2023-01-05T18:05:53.447Z,50.12
2023-01-05T18:08:21.238Z,50.77
2023-01-05T18:10:48.878Z,51.31
2023-01-05T18:13:19.605Z,51.10
2023-01-05T18:15:52.431Z,50.01
2023-01-05T18:18:21.207Z,49.71
2023-01-05T18:20:51.073Z,51.36
2023-01-05T18:23:20.348Z,53.20
2023-01-05T18:25:47.943Z,51.71
2023-01-05T18:28:15.533Z,51.08
2023-01-05T18:30:43.321Z,50.91
2023-01-05T18:35:43.619Z,50.52
2023-01-05T18:38:11.665Z,51.23
2023-01-05T18:40:40.683Z,51.55
2023-01-05T18:43:08.336Z,52.66
2023-01-05T18:45:39.937Z,52.30
2023-01-05T18:48:07.928Z,51.65
2023-01-05T18:50:36.321Z,53.19
2023-01-05T18:53:03.988Z,53.19
2023-01-05T18:55:31.506Z,50.68
2023-01-05T18:58:00.629Z,49.79
2023-01-05T19:00:28.266Z,51.07
2023-01-05T19:02:55.904Z,52.15
2023-01-05T19:05:23.691Z,50.83
2023-01-05T19:07:52.365Z,50.94
2023-01-05T19:10:19.972Z,50.46
2023-01-05T19:12:47.662Z,51.20
2023-01-05T19:15:16.656Z,52.35
2023-01-05T19:17:44.213Z,51.20
2023-01-05T19:20:12.215Z,51.14
2023-01-05T19:22:41.588Z,51.64
2023-01-05T19:25:09.517Z,51.67
2023-01-05T19:27:38.888Z,52.05
2023-01-05T19:30:06.848Z,52.58
2023-01-05T19:32:36.928Z,52.43
2023-01-05T19:35:05.623Z,51.38
2023-01-05T19:37:34.509Z,50.77
2023-01-05T19:40:02.681Z,51.09
2023-01-05T19:42:31.660Z,51.45
2023-01-05T19:44:59.572Z,52.20
2023-01-05T19:47:27.188Z,52.56
2023-01-05T19:49:56.481Z,52.14
2023-01-05T19:52:29.481Z,51.97
2023-01-05T19:54:57.263Z,51.94
2023-01-05T19:57:25.163Z,52.17
2023-01-05T19:59:52.793Z,53.08
2023-01-05T20:02:20.418Z,52.55
2023-01-05T20:04:48.128Z,51.50
2023-01-05T20:07:17.144Z,52.12
2023-01-05T20:09:44.862Z,52.02
2023-01-05T20:12:15.349Z,52.40
2023-01-05T20:14:43.266Z,53.53
2023-01-05T20:17:11.477Z,52.22
2023-01-05T20:19:39.404Z,51.47
2023-01-05T20:22:08.409Z,52.00
2023-01-05T20:24:37.660Z,52.49
2023-01-05T20:27:06.021Z,51.37
2023-01-05T20:29:33.777Z,50.88
2023-01-05T20:32:02.503Z,50.36
2023-01-05T20:34:32.098Z,49.73
2023-01-05T20:37:00.045Z,50.62
2023-01-05T20:39:27.607Z,49.99
2023-01-05T20:41:56.541Z,52.19
2023-01-05T20:44:25.359Z,50.83
2023-01-05T20:46:53.969Z,51.41
2023-01-05T20:49:21.858Z,52.09
2023-01-05T20:51:49.509Z,52.67
2023-01-05T20:54:17.368Z,51.50
2023-01-05T20:56:46.380Z,50.88
2023-01-05T20:59:16.820Z,51.92
2023-01-05T21:01:45.344Z,52.35
2023-01-05T21:04:13.076Z,51.47
2023-01-05T21:06:40.983Z,50.58
2023-01-05T21:09:09.269Z,49.70
2023-01-05T21:11:37.362Z,52.43
2023-01-05T21:14:06.181Z,50.80
2023-01-05T21:16:35.965Z,51.51
2023-01-05T21:19:03.626Z,51.77
2023-01-05T21:21:31.867Z,49.80
2023-01-05T21:23:59.437Z,49.28
2023-01-05T21:26:26.997Z,50.09
2023-01-05T21:28:55.313Z,49.87
2023-01-05T21:31:23.799Z,49.27
2023-01-05T21:33:56.276Z,48.51
2023-01-05T21:36:24.494Z,50.30
2023-01-05T21:39:01.602Z,54.57
2023-01-05T21:41:49.005Z,54.06
2023-01-05T21:44:16.886Z,55.44
2023-01-05T21:46:44.562Z,54.22
2023-01-05T21:49:14.277Z,54.86
2023-01-05T21:52:04.874Z,54.03
2023-01-05T21:54:49.837Z,53.53
2023-01-05T21:57:17.660Z,52.66
2023-01-05T21:59:45.343Z,53.71
2023-01-05T22:02:13.862Z,52.77
2023-01-05T22:04:42.982Z,53.17
2023-01-05T22:07:10.696Z,54.67
2023-01-05T22:09:38.419Z,53.32
2023-01-05T22:12:07.211Z,54.77
2023-01-05T22:14:34.877Z,55.42
2023-01-05T22:17:02.579Z,55.52
2023-01-05T22:19:30.116Z,57.77
2023-01-05T22:21:59.173Z,54.07
2023-01-05T22:24:26.719Z,53.75
2023-01-05T22:26:54.545Z,55.07
2023-01-05T22:29:22.287Z,54.99
2023-01-05T22:31:50.658Z,56.11
2023-01-05T22:34:18.319Z,55.14
2023-01-05T22:36:45.927Z,57.24
2023-01-05T22:39:14.952Z,57.20
2023-01-05T22:41:42.584Z,54.48
2023-01-05T22:44:10.135Z,54.75
2023-01-05T22:46:37.731Z,55.55
2023-01-05T22:49:05.319Z,54.83
2023-01-05T22:51:33.430Z,53.80
2023-01-05T22:54:01.138Z,54.89
2023-01-05T22:56:31.805Z,55.62
2023-01-05T22:58:59.578Z,55.37
2023-01-05T23:01:27.854Z,54.15
2023-01-05T23:03:55.975Z,52.64
2023-01-05T23:06:23.630Z,52.59
2023-01-05T23:08:51.756Z,51.92
2023-01-05T23:11:20.249Z,50.86
2023-01-05T23:13:49.321Z,49.04
2023-01-05T23:16:16.895Z,50.17
2023-01-05T23:18:44.679Z,49.09
2023-01-05T23:21:13.093Z,49.17
2023-01-05T23:23:40.732Z,49.95
2023-01-05T23:26:09.209Z,51.18
2023-01-05T23:28:36.814Z,50.61
2023-01-05T23:31:06.021Z,51.30
2023-01-05T23:33:34.218Z,53.14
2023-01-05T23:36:01.905Z,50.52
2023-01-05T23:38:29.529Z,50.88
2023-01-05T23:40:57.569Z,50.00
2023-01-05T23:43:25.612Z,51.08
2023-01-05T23:45:53.565Z,50.82
2023-01-05T23:48:22.476Z,52.93
2023-01-05T23:50:50.076Z,51.24
2023-01-05T23:53:17.623Z,51.10
2023-01-05T23:55:45.176Z,51.20
2023-01-05T23:58:12.742Z,51.73
